Latest Coastal Weather Observations for Yanakie

IDV60701

Issued at 4:41 pm EST Tuesday 17 September 2019 (issued every 10 minutes, with the page automatically refreshed every 10 minutes)

About coastal observations | Map of coastal stations | Coastal observations for VIC | Marine services | Other Formats
Station Details ID: 085301 Name: YANAKIE Lat: -38.81 Lon: 146.19 Height: 13.3 m
Data from the previous 72 hours. | See also: Recent months at Yanakie
Date/Time
EST
Wind Sea
Height
m
Swell Vis
km
Cloud Weather Temp
°C
Press
hPa
Rain since
9am
mm
Dir  Spd
kts
Gust
kts
Height
m
Period
s
Dir
17/04:30pm ESE 6 10 - - - - - - - 10.8 1028.1 0.0
17/04:00pm E 5 9 - - - - - - - 12.0 1028.1 0.0
17/03:30pm ENE 6 9 - - - - - - - 12.6 1027.9 0.0
17/03:00pm ENE 5 8 - - - - - - - 12.7 1028.0 0.0
17/02:30pm E 6 9 - - - - - - - 12.9 1028.1 0.0
17/02:00pm ENE 6 10 - - - - - - - 12.8 1028.1 0.0
17/01:30pm ENE 5 8 - - - - - - - 12.9 1028.4 0.0
17/01:00pm S 5 9 - - - - - - - 12.1 1028.4 0.0
17/12:30pm S 5 9 - - - - - - - 12.0 1028.7 0.0
17/12:00pm S 7 10 - - - - - - - 11.7 1029.0 0.0
17/11:30am S 7 11 - - - - - - - 11.2 1029.0 0.0
17/11:00am SSW 8 10 - - - - - - - 10.6 1029.1 0.0
17/10:30am S 7 11 - - - - - - - 10.7 1029.0 0.0
17/10:00am SSW 7 10 - - - - - - - 11.0 1028.8 0.0
17/09:30am SSW 7 11 - - - - - - - 10.9 1028.9 0.0
17/09:00am S 6 9 - - - - - - - 10.4 1028.8 0.0
17/08:30am S 4 6 - - - - - - - 9.8 1028.7 0.0
17/08:00am S 2 4 - - - - - - - 8.2 1028.3 0.0
17/07:30am CALM 0 0 - - - - - - - 5.3 1028.0 0.0
17/07:00am SW 1 2 - - - - - - - 2.9 1027.6 0.0
17/06:30am SW 1 2 - - - - - - - 1.4 1027.3 0.0
17/06:00am SSW 2 3 - - - - - - - 1.6 1027.0 0.0
17/05:30am SSE 2 3 - - - - - - - 1.7 1026.8 0.0
17/05:00am SSE 2 3 - - - - - - - 2.1 1026.5 0.0
17/04:30am SE 2 3 - - - - - - - 2.5 1026.3 0.0
17/04:00am SE 1 3 - - - - - - - 2.6 1026.3 0.0
17/03:30am E 1 2 - - - - - - - 3.9 1026.1 0.0
17/03:00am SE 3 4 - - - - - - - 5.7 1026.1 0.0
17/02:30am SE 4 6 - - - - - - - 5.8 1026.1 0.0
17/02:00am SSE 3 6 - - - - - - - 5.8 1026.1 0.0
17/01:30am S 4 8 - - - - - - - 6.5 1026.2 0.0
17/01:00am S 5 7 - - - - - - - 7.0 1026.5 0.0
17/12:30am S 6 10 - - - - - - - 7.2 1026.4 0.0
17/12:00am S 7 11 - - - - - - - 7.5 1026.2 0.0
 
Date/Time
EST
Wind Sea
Height
m
Swell Vis
km
Cloud Weather Temp
°C
Press
hPa
Rain since
9am
mm
Dir  Spd
kts
Gust
kts
Height
m
Period
s
Dir
16/11:30pm S 7 10 - - - - - - - 7.9 1026.1 0.0
16/11:00pm SSW 9 15 - - - - - - - 8.1 1026.0 0.0
16/10:30pm SSW 9 14 - - - - - - - 8.9 1025.9 0.0
16/10:00pm S 8 12 - - - - - - - 8.2 1025.8 0.0
16/09:30pm SSW 7 12 - - - - - - - 7.7 1025.5 0.0
16/09:00pm SSW 9 13 - - - - - - - 8.5 1025.2 0.0
16/08:30pm SSW 11 17 - - - - - - - 8.4 1025.0 0.0
16/08:00pm SSW 9 13 - - - - - - - 7.3 1025.0 0.0
16/07:30pm SW 10 14 - - - - - - - 7.9 1024.7 0.0
16/07:00pm SW 10 13 - - - - - - - 8.0 1024.2 0.0
16/06:30pm SW 12 17 - - - - - - - 8.2 1023.8 0.0
16/06:00pm SW 13 18 - - - - - - - 9.0 1023.4 0.0
16/05:30pm SW 11 16 - - - - - - - 8.5 1023.2 0.0
16/05:00pm SW 14 19 - - - - - - - 9.3 1023.0 0.0
16/04:30pm SW 17 21 - - - - - - - 9.7 1022.6 0.0
16/04:00pm SW 13 17 - - - - - - - 10.9 1022.0 0.0
16/03:30pm SW 15 20 - - - - - - - 11.0 1021.8 0.0
16/03:00pm SW 15 21 - - - - - - - 10.5 1021.5 0.0
16/02:30pm SW 15 21 - - - - - - - 11.1 1021.3 0.0
16/02:00pm SW 11 16 - - - - - - - 11.4 1021.0 0.0
16/01:30pm SW 14 17 - - - - - - - 10.4 1020.9 0.0
16/01:00pm SW 15 20 - - - - - - - 11.1 1020.7 0.0
16/12:30pm SW 19 24 - - - - - - - 10.8 1020.7 0.0
16/12:00pm SW 17 23 - - - - - - - 11.2 1020.5 0.0
16/11:30am SW 17 21 - - - - - - - 11.2 1020.3 0.0
16/11:00am SW 17 21 - - - - - - - 11.3 1020.1 0.0
16/10:30am SW 17 29 - - - - - - - 10.3 1019.9 0.0
16/10:23am SW 19 29 - - - - - - - 9.7 1019.9 0.0
16/10:00am WSW 14 19 - - - - - - - 11.5 1019.4 0.0
16/09:30am SW 15 20 - - - - - - - 10.3 1019.2 0.0
16/09:00am SW 16 23 - - - - - - - 10.3 1019.0 12.8
16/08:30am SW 15 21 - - - - - - - 10.9 1018.7 12.8
16/08:00am WSW 17 23 - - - - - - - 10.6 1018.2 12.8
16/07:30am WSW 19 27 - - - - - - - 9.8 1017.9 12.8
16/07:00am WSW 15 21 - - - - - - - 9.6 1017.3 12.8
16/06:30am WSW 18 25 - - - - - - - 9.7 1017.0 12.8
16/06:00am WSW 18 27 - - - - - - - 9.6 1016.5 12.8
16/05:30am WSW 18 28 - - - - - - - 10.4 1016.1 12.8
16/05:29am WSW 18 28 - - - - - - - 10.4 1016.1 12.8
16/05:00am WSW 16 23 - - - - - - - 10.3 1015.9 12.8
16/04:30am WSW 20 28 - - - - - - - 10.4 1015.6 12.8
16/04:21am WSW 15 25 - - - - - - - 10.4 1015.4 12.8
16/04:00am W 15 21 - - - - - - - 10.7 1015.0 12.8
16/03:30am WSW 15 21 - - - - - - - 10.7 1014.6 12.8
16/03:00am W 17 23 - - - - - - - 10.5 1014.6 12.8
16/02:30am WSW 15 22 - - - - - - - 10.6 1014.5 12.8
16/02:00am WSW 15 21 - - - - - - - 9.9 1014.3 12.8
16/01:30am W 13 17 - - - - - - - 10.1 1014.1 12.8
16/01:00am W 11 14 - - - - - - - 10.0 1013.9 12.6
16/12:30am W 12 15 - - - - - - - 9.7 1014.1 12.6
16/12:00am WSW 16 22 - - - - - - Rain 10.1 1014.0 11.8
 
Date/Time
EST
Wind Sea
Height
m
Swell Vis
km
Cloud Weather Temp
°C
Press
hPa
Rain since
9am
mm
Dir  Spd
kts
Gust
kts
Height
m
Period
s
Dir
15/11:30pm WSW 14 19 - - - - - - - 10.2 1014.0 9.8
15/11:00pm WSW 13 20 - - - - - - - 11.3 1013.4 9.0
15/10:30pm W 14 20 - - - - - - - 13.1 1013.3 6.8
15/10:00pm NW 16 22 - - - - - - - 14.2 1012.7 6.4
15/09:30pm NW 17 22 - - - - - - - 14.4 1012.4 6.4
15/09:00pm NW 17 25 - - - - - - Recent precip. 14.3 1012.5 6.4
15/08:30pm NNW 16 23 - - - - - - - 14.1 1012.7 6.4
15/08:00pm NW 16 24 - - - - - - - 14.2 1013.9 5.8
15/07:30pm NW 18 25 - - - - - - - 14.3 1014.0 4.0
15/07:00pm NW 17 23 - - - - - - - 14.2 1013.5 3.2
15/06:39pm NW 18 29 - - - - - - - 14.4 1013.0 3.2
15/06:30pm NW 17 26 - - - - - - - 14.6 1012.9 2.8
15/06:00pm NNW 16 23 - - - - - - Recent precip. 14.4 1012.0 2.8
15/05:30pm NNW 19 27 - - - - - - - 14.0 1011.7 2.8
15/05:20pm NNW 20 27 - - - - - - - 13.9 1011.4 2.8
15/05:06pm NW 21 31 - - - - - - - 14.2 1013.2 2.0
15/05:00pm WNW 20 26 - - - - - - - 14.4 1013.3 1.4
15/04:30pm NW 14 20 - - - - - - - 15.2 1013.1 0.6
15/04:00pm NW 16 28 - - - - - - - 16.6 1012.4 0.0
15/03:42pm NW 16 26 - - - - - - - 17.6 1011.8 0.0
15/03:30pm NW 18 26 - - - - - - - 18.3 1011.9 0.0
15/03:00pm NW 16 21 - - - - - - - 19.2 1011.9 0.0
15/02:30pm NW 16 22 - - - - - - - 18.0 1012.3 0.0
15/02:00pm WNW 12 19 - - - - - - - 17.1 1013.1 0.0
15/01:30pm WNW 16 22 - - - - - - - 16.6 1013.5 0.0
15/01:00pm WNW 17 23 - - - - - - - 17.5 1013.8 0.0
15/12:41pm WNW 19 32 - - - - - - - 18.6 1013.9 0.0
15/12:30pm WNW 17 25 - - - - - - - 19.5 1014.0 0.0
15/12:02pm WNW 18 29 - - - - - - - 19.8 1014.3 0.0
15/12:00pm WNW 18 26 - - - - - - - 19.9 1014.3 0.0
15/11:30am NW 17 26 - - - - - - - 19.5 1014.4 0.0
15/11:00am WNW 16 23 - - - - - - - 19.7 1014.8 0.0
15/10:30am WNW 15 25 - - - - - - - 18.7 1015.2 0.0
15/10:00am NW 12 21 - - - - - - - 18.0 1015.5 0.0
15/09:35am WNW 15 25 - - - - - - - 17.9 1016.0 0.0
15/09:30am NW 14 22 - - - - - - - 17.2 1016.2 0.0
15/09:00am NW 16 21 - - - - - - - 16.8 1016.3 0.8
15/08:30am NW 14 20 - - - - - - - 16.4 1016.0 0.8
15/08:00am NW 13 18 - - - - - - - 15.3 1016.2 0.8
15/07:30am NW 14 18 - - - - - - - 14.3 1016.1 0.8
15/07:00am NW 15 22 - - - - - - - 14.0 1015.9 0.8
15/06:30am NW 15 23 - - - - - - - 14.1 1016.1 0.8
15/06:00am NW 10 14 - - - - - - Recent precip. 13.3 1016.4 0.8
15/05:30am NW 13 17 - - - - - - - 13.0 1016.3 0.8
15/05:00am NW 12 17 - - - - - - - 13.0 1016.6 0.6
15/04:30am NW 10 13 - - - - - - - 13.0 1016.7 0.4
15/04:00am NW 11 16 - - - - - - - 13.1 1016.7 0.2
15/03:30am NW 10 14 - - - - - - - 13.6 1016.8 0.2
15/03:00am NW 11 16 - - - - - - Recent precip. 13.0 1017.0 0.2
15/02:30am NW 11 15 - - - - - - - 12.9 1017.5 0.2
15/02:00am NW 11 16 - - - - - - - 13.4 1017.8 0.0
15/01:30am NW 11 15 - - - - - - - 13.7 1018.0 0.0
15/01:00am NW 9 13 - - - - - - - 13.3 1018.4 0.0
15/12:30am NW 9 12 - - - - - - - 13.1 1018.7 0.0
15/12:00am NW 6 9 - - - - - - - 12.2 1019.1 0.0
 
Date/Time
EST
Wind Sea
Height
m
Swell Vis
km
Cloud Weather Temp
°C
Press
hPa
Rain since
9am
mm
Dir  Spd
kts
Gust
kts
Height
m
Period
s
Dir
14/11:30pm WNW 6 8 - - - - - - - 11.9 1019.8 0.0
14/11:00pm WSW 6 8 - - - - - - - 12.1 1020.3 0.0
14/10:30pm SW 6 8 - - - - - - - 11.6 1020.5 0.0
14/10:00pm SSW 4 5 - - - - - - - 10.8 1020.0 0.0
14/09:30pm S 2 3 - - - - - - - 9.1 1020.0 0.0
14/09:00pm SSW 3 3 - - - - - - - 8.0 1020.3 0.0
14/08:30pm SSW 2 3 - - - - - - - 6.7 1020.3 0.0
14/08:00pm CALM 0 0 - - - - - - - 8.0 1020.3 0.0
14/07:30pm S 2 3 - - - - - - - 7.7 1020.7 0.0
14/07:00pm SSW 2 3 - - - - - - - 8.0 1020.9 0.0
14/06:30pm SW 1 1 - - - - - - - 9.4 1021.1 0.0
14/06:00pm SW 2 3 - - - - - - - 10.6 1021.6 0.0
14/05:30pm W 5 6 - - - - - - - 12.0 1021.8 0.0
14/05:00pm W 6 8 - - - - - - - 12.5 1021.7 0.0

Other formats

Comma delimited format used in spreadsheet applications
http://www.bom.gov.au/fwo/IDV60701/IDV60701.94911.axf

JavaScript Object Notation format (JSON) in row-major order
http://www.bom.gov.au/fwo/IDV60701/IDV60701.94911.json

Data quality

Most of these data are generated automatically and are frequently updated. Quality checks on data are not normally performed. It is possible for incorrect values to appear. Refer to information at About Latest Weather Observations and please check the disclaimer before using these data.